sensor_id;sensor_type;location;lat;lon;timestamp;pressure;altitude;pressure_sealevel;temperature;humidity
75923;BME280;64602;47.542;19.090;2022-11-30T05:41:08;101047.44;;;3.57;75.58
75923;BME280;64602;47.542;19.090;2022-11-30T05:46:10;101050.78;;;3.59;75.94
75923;BME280;64602;47.542;19.090;2022-11-30T05:51:17;101048.53;;;3.63;75.64
75923;BME280;64602;47.542;19.090;2022-11-30T05:56:20;101041.44;;;3.55;75.62
75923;BME280;64602;47.542;19.090;2022-11-30T06:01:25;101051.13;;;3.56;75.84
75923;BME280;64602;47.542;19.090;2022-11-30T06:06:27;101061.75;;;3.64;75.31
75923;BME280;64602;47.542;19.090;2022-11-30T06:11:29;101036.31;;;3.60;75.45
75923;BME280;64602;47.542;19.090;2022-11-30T06:16:31;101053.31;;;3.68;74.84
75923;BME280;64602;47.542;19.090;2022-11-30T06:21:33;101057.47;;;3.70;75.21
75923;BME280;64602;47.542;19.090;2022-11-30T06:26:36;101043.81;;;3.65;74.86
75923;BME280;64602;47.542;19.090;2022-11-30T06:31:38;101071.34;;;3.74;74.22
75923;BME280;64602;47.542;19.090;2022-11-30T06:36:40;101070.97;;;3.77;74.52
75923;BME280;64602;47.542;19.090;2022-11-30T06:41:42;101075.22;;;3.71;74.22
75923;BME280;64602;47.542;19.090;2022-11-30T06:46:44;101075.69;;;3.75;73.85
75923;BME280;64602;47.542;19.090;2022-11-30T06:51:46;101092.78;;;3.89;74.06
75923;BME280;64602;47.542;19.090;2022-11-30T06:56:48;101074.34;;;3.85;73.95
75923;BME280;64602;47.542;19.090;2022-11-30T07:01:50;101083.38;;;3.99;73.82
75923;BME280;64602;47.542;19.090;2022-11-30T07:06:52;101094.59;;;4.03;72.74
75923;BME280;64602;47.542;19.090;2022-11-30T07:11:54;101075.16;;;4.01;72.73
75923;BME280;64602;47.542;19.090;2022-11-30T07:16:56;101087.03;;;4.13;72.51
75923;BME280;64602;47.542;19.090;2022-11-30T07:21:58;101080.00;;;4.12;72.46
75923;BME280;64602;47.542;19.090;2022-11-30T07:27:01;101071.56;;;4.15;72.21
75923;BME280;64602;47.542;19.090;2022-11-30T07:32:04;101085.09;;;4.28;71.89
75923;BME280;64602;47.542;19.090;2022-11-30T07:37:06;101082.41;;;4.28;71.37
75923;BME280;64602;47.542;19.090;2022-11-30T07:42:08;101081.25;;;4.38;71.05
75923;BME280;64602;47.542;19.090;2022-11-30T07:47:10;101067.81;;;4.38;70.79
75923;BME280;64602;47.542;19.090;2022-11-30T07:52:12;101076.84;;;4.52;70.51
75923;BME280;64602;47.542;19.090;2022-11-30T07:57:14;101080.19;;;4.60;69.67
75923;BME280;64602;47.542;19.090;2022-11-30T08:02:16;101073.41;;;4.64;69.52
75923;BME280;64602;47.542;19.090;2022-11-30T08:07:19;101075.50;;;4.69;69.90
75923;BME280;64602;47.542;19.090;2022-11-30T08:12:21;101082.78;;;4.75;69.82
75923;BME280;64602;47.542;19.090;2022-11-30T08:17:23;101086.91;;;4.78;69.37
75923;BME280;64602;47.542;19.090;2022-11-30T08:22:25;101084.91;;;4.86;69.30
75923;BME280;64602;47.542;19.090;2022-11-30T08:27:27;101089.12;;;4.96;68.99
75923;BME280;64602;47.542;19.090;2022-11-30T08:32:30;101080.66;;;4.99;68.30
75923;BME280;64602;47.542;19.090;2022-11-30T08:37:35;101068.25;;;4.98;68.06
75923;BME280;64602;47.542;19.090;2022-11-30T08:42:37;101060.81;;;5.06;67.59
75923;BME280;64602;47.542;19.090;2022-11-30T08:47:39;101066.03;;;5.14;67.39
75923;BME280;64602;47.542;19.090;2022-11-30T08:52:41;101062.75;;;5.19;67.30
75923;BME280;64602;47.542;19.090;2022-11-30T08:57:43;101057.22;;;5.27;67.18
75923;BME280;64602;47.542;19.090;2022-11-30T09:02:45;101055.16;;;5.29;67.04
75923;BME280;64602;47.542;19.090;2022-11-30T09:07:48;101052.25;;;5.31;67.20
75923;BME280;64602;47.542;19.090;2022-11-30T09:12:50;101058.66;;;5.30;66.88
75923;BME280;64602;47.542;19.090;2022-11-30T09:18:01;101058.91;;;5.42;66.64
75923;BME280;64602;47.542;19.090;2022-11-30T09:23:03;101072.59;;;5.47;66.49
75923;BME280;64602;47.542;19.090;2022-11-30T09:28:05;101064.16;;;5.56;66.38
75923;BME280;64602;47.542;19.090;2022-11-30T09:33:13;101058.16;;;5.61;66.28
75923;BME280;64602;47.542;19.090;2022-11-30T09:38:15;101062.75;;;5.74;65.87
75923;BME280;64602;47.542;19.090;2022-11-30T09:53:43;101049.34;;;6.01;64.94
75923;BME280;64602;47.542;19.090;2022-11-30T09:58:51;101064.69;;;6.13;64.67
75923;BME280;64602;47.542;19.090;2022-11-30T10:03:55;101059.31;;;6.13;63.89
75923;BME280;64602;47.542;19.090;2022-11-30T10:09:05;101063.47;;;6.23;63.75
75923;BME280;64602;47.542;19.090;2022-11-30T10:20:21;101058.88;;;6.43;63.97
75923;BME280;64602;47.542;19.090;2022-11-30T10:25:39;101051.63;;;6.50;63.75
75923;BME280;64602;47.542;19.090;2022-11-30T10:30:46;101034.44;;;6.51;63.63
75923;BME280;64602;47.542;19.090;2022-11-30T10:35:52;101045.41;;;6.56;61.75
75923;BME280;64602;47.542;19.090;2022-11-30T10:46:17;101028.81;;;6.66;61.48
75923;BME280;64602;47.542;19.090;2022-11-30T10:51:22;101014.69;;;6.71;61.47
75923;BME280;64602;47.542;19.090;2022-11-30T10:56:25;101023.53;;;6.91;61.55
75923;BME280;64602;47.542;19.090;2022-11-30T11:06:35;101025.88;;;7.33;60.46
75923;BME280;64602;47.542;19.090;2022-11-30T11:11:41;101028.34;;;7.41;60.72
75923;BME280;64602;47.542;19.090;2022-11-30T11:16:56;101014.62;;;7.42;59.82
75923;BME280;64602;47.542;19.090;2022-11-30T11:22:02;101010.28;;;7.35;59.82
75923;BME280;64602;47.542;19.090;2022-11-30T11:27:04;101014.91;;;7.27;60.48
75923;BME280;64602;47.542;19.090;2022-11-30T11:32:16;101013.28;;;7.20;61.05
75923;BME280;64602;47.542;19.090;2022-11-30T11:37:25;100996.25;;;7.19;60.65
75923;BME280;64602;47.542;19.090;2022-11-30T11:42:33;101004.09;;;7.27;60.61
75923;BME280;64602;47.542;19.090;2022-11-30T11:47:38;101013.75;;;7.48;61.08
75923;BME280;64602;47.542;19.090;2022-11-30T11:52:41;101006.66;;;7.54;60.35
75923;BME280;64602;47.542;19.090;2022-11-30T11:57:53;101014.25;;;7.70;60.35
75923;BME280;64602;47.542;19.090;2022-11-30T12:08:56;101007.72;;;8.60;58.50
75923;BME280;64602;47.542;19.090;2022-11-30T12:14:01;101023.78;;;8.30;59.17
75923;BME280;64602;47.542;19.090;2022-11-30T12:29:43;100997.84;;;7.72;60.29
75923;BME280;64602;47.542;19.090;2022-11-30T12:40:40;101004.69;;;7.75;60.88
75923;BME280;64602;47.542;19.090;2022-11-30T12:45:46;100994.69;;;7.75;61.41
75923;BME280;64602;47.542;19.090;2022-11-30T12:51:00;100984.66;;;7.82;60.88
75923;BME280;64602;47.542;19.090;2022-11-30T13:12:11;100971.91;;;8.14;59.46
75923;BME280;64602;47.542;19.090;2022-11-30T13:17:18;100993.22;;;8.04;60.22
75923;BME280;64602;47.542;19.090;2022-11-30T13:27:43;100974.03;;;7.87;61.22
75923;BME280;64602;47.542;19.090;2022-11-30T13:32:50;100975.53;;;7.77;61.11
75923;BME280;64602;47.542;19.090;2022-11-30T13:38:01;100977.88;;;7.73;61.12
75923;BME280;64602;47.542;19.090;2022-11-30T13:43:25;100980.94;;;7.77;61.33
75923;BME280;64602;47.542;19.090;2022-11-30T13:48:36;100971.84;;;7.71;60.28
75923;BME280;64602;47.542;19.090;2022-11-30T13:53:40;100985.00;;;7.61;58.75
75923;BME280;64602;47.542;19.090;2022-11-30T14:04:31;100983.63;;;7.45;58.96
75923;BME280;64602;47.542;19.090;2022-11-30T14:14:44;100993.72;;;7.31;59.03
75923;BME280;64602;47.542;19.090;2022-11-30T14:19:54;100978.59;;;7.23;59.25
75923;BME280;64602;47.542;19.090;2022-11-30T14:24:59;100992.72;;;7.19;59.51
75923;BME280;64602;47.542;19.090;2022-11-30T14:30:03;100978.91;;;7.02;59.45
75923;BME280;64602;47.542;19.090;2022-11-30T14:35:14;100984.50;;;7.00;59.70
75923;BME280;64602;47.542;19.090;2022-11-30T14:40:19;100985.91;;;7.10;59.03
75923;BME280;64602;47.542;19.090;2022-11-30T14:45:27;100968.75;;;6.97;58.85
75923;BME280;64602;47.542;19.090;2022-11-30T14:50:31;100981.78;;;7.00;59.26
75923;BME280;64602;47.542;19.090;2022-11-30T14:55:59;100984.12;;;6.90;59.06
75923;BME280;64602;47.542;19.090;2022-11-30T15:01:22;100983.50;;;6.81;59.05
75923;BME280;64602;47.542;19.090;2022-11-30T15:06:30;100974.84;;;6.73;59.35
75923;BME280;64602;47.542;19.090;2022-11-30T15:11:32;100961.81;;;6.63;59.65
75923;BME280;64602;47.542;19.090;2022-11-30T15:16:35;100976.31;;;6.62;59.80
75923;BME280;64602;47.542;19.090;2022-11-30T15:21:45;100959.53;;;6.53;59.74
75923;BME280;64602;47.542;19.090;2022-11-30T15:27:03;100953.97;;;6.48;59.77
75923;BME280;64602;47.542;19.090;2022-11-30T15:32:17;100960.19;;;6.42;59.40
75923;BME280;64602;47.542;19.090;2022-11-30T15:37:27;100960.38;;;6.40;58.91
75923;BME280;64602;47.542;19.090;2022-11-30T15:42:32;100958.75;;;6.39;60.29
75923;BME280;64602;47.542;19.090;2022-11-30T15:47:41;100966.00;;;6.32;61.29
75923;BME280;64602;47.542;19.090;2022-11-30T15:52:47;100971.81;;;6.29;62.88
75923;BME280;64602;47.542;19.090;2022-11-30T15:57:59;100960.84;;;6.17;63.81
75923;BME280;64602;47.542;19.090;2022-11-30T16:03:09;100966.44;;;6.16;64.61
75923;BME280;64602;47.542;19.090;2022-11-30T16:08:14;100952.75;;;6.11;65.56
75923;BME280;64602;47.542;19.090;2022-11-30T16:13:19;100967.06;;;6.11;65.61
75923;BME280;64602;47.542;19.090;2022-11-30T16:18:24;100955.25;;;5.99;66.36
75923;BME280;64602;47.542;19.090;2022-11-30T16:23:27;100956.91;;;6.00;66.73
75923;BME280;64602;47.542;19.090;2022-11-30T16:28:29;100964.81;;;5.95;66.80
75923;BME280;64602;47.542;19.090;2022-11-30T16:33:31;100963.13;;;5.94;66.94
75923;BME280;64602;47.542;19.090;2022-11-30T16:38:33;100967.84;;;5.92;67.95
75923;BME280;64602;47.542;19.090;2022-11-30T16:43:38;100972.84;;;5.88;67.91
75923;BME280;64602;47.542;19.090;2022-11-30T16:48:41;100943.81;;;5.77;68.32
75923;BME280;64602;47.542;19.090;2022-11-30T16:53:44;100952.94;;;5.69;68.47
75923;BME280;64602;47.542;19.090;2022-11-30T16:58:46;100950.22;;;5.63;68.59
75923;BME280;64602;47.542;19.090;2022-11-30T17:03:49;100950.00;;;5.57;68.65
75923;BME280;64602;47.542;19.090;2022-11-30T17:08:52;100962.25;;;5.67;68.25
75923;BME280;64602;47.542;19.090;2022-11-30T17:13:55;100972.59;;;5.70;67.83
75923;BME280;64602;47.542;19.090;2022-11-30T17:18:57;100968.03;;;5.70;67.73
75923;BME280;64602;47.542;19.090;2022-11-30T17:23:59;100977.38;;;5.68;67.50
75923;BME280;64602;47.542;19.090;2022-11-30T17:29:02;100974.25;;;5.57;67.64
75923;BME280;64602;47.542;19.090;2022-11-30T17:34:04;100977.56;;;5.60;68.01
75923;BME280;64602;47.542;19.090;2022-11-30T17:39:07;100973.44;;;5.57;68.20
75923;BME280;64602;47.542;19.090;2022-11-30T17:44:09;100969.09;;;5.56;69.06
75923;BME280;64602;47.542;19.090;2022-11-30T17:49:11;100989.78;;;5.62;68.64
75923;BME280;64602;47.542;19.090;2022-11-30T17:54:14;100977.16;;;5.49;69.06
75923;BME280;64602;47.542;19.090;2022-11-30T17:59:16;100988.31;;;5.46;69.53
75923;BME280;64602;47.542;19.090;2022-11-30T18:04:18;100985.41;;;5.48;69.30
75923;BME280;64602;47.542;19.090;2022-11-30T18:09:20;100988.94;;;5.55;69.54
75923;BME280;64602;47.542;19.090;2022-11-30T18:14:24;100996.00;;;5.56;69.27
75923;BME280;64602;47.542;19.090;2022-11-30T18:19:26;100997.44;;;5.52;69.58
75923;BME280;64602;47.542;19.090;2022-11-30T18:24:28;101001.59;;;5.54;69.57
75923;BME280;64602;47.542;19.090;2022-11-30T18:29:30;100992.25;;;5.44;69.51
75923;BME280;64602;47.542;19.090;2022-11-30T18:34:33;100997.41;;;5.39;70.29
75923;BME280;64602;47.542;19.090;2022-11-30T18:39:35;100978.34;;;5.27;70.01
75923;BME280;64602;47.542;19.090;2022-11-30T18:44:37;100998.03;;;5.34;70.45
75923;BME280;64602;47.542;19.090;2022-11-30T18:49:39;100997.19;;;5.33;70.20
75923;BME280;64602;47.542;19.090;2022-11-30T18:54:41;100975.81;;;5.19;70.32
75923;BME280;64602;47.542;19.090;2022-11-30T18:59:44;100982.00;;;5.19;70.73
75923;BME280;64602;47.542;19.090;2022-11-30T19:04:49;100986.56;;;5.19;70.33
75923;BME280;64602;47.542;19.090;2022-11-30T19:09:51;101001.09;;;5.31;70.56
75923;BME280;64602;47.542;19.090;2022-11-30T19:14:53;100991.53;;;5.15;70.68
75923;BME280;64602;47.542;19.090;2022-11-30T19:19:56;100982.44;;;5.16;70.90
75923;BME280;64602;47.542;19.090;2022-11-30T19:24:58;100998.78;;;5.21;71.00
75923;BME280;64602;47.542;19.090;2022-11-30T19:30:01;100996.91;;;5.15;71.13
75923;BME280;64602;47.542;19.090;2022-11-30T19:35:06;100993.59;;;5.13;71.26
75923;BME280;64602;47.542;19.090;2022-11-30T19:40:09;101008.53;;;5.22;70.85
75923;BME280;64602;47.542;19.090;2022-11-30T19:45:11;101018.66;;;5.20;70.98
75923;BME280;64602;47.542;19.090;2022-11-30T19:50:13;100997.31;;;5.12;70.54
75923;BME280;64602;47.542;19.090;2022-11-30T19:55:15;101020.94;;;5.23;71.50
75923;BME280;64602;47.542;19.090;2022-11-30T20:00:18;101015.75;;;5.15;70.74
75923;BME280;64602;47.542;19.090;2022-11-30T20:05:20;101013.28;;;5.20;70.60
75923;BME280;64602;47.542;19.090;2022-11-30T20:10:22;101028.84;;;5.31;70.96
75923;BME280;64602;47.542;19.090;2022-11-30T20:15:31;101021.19;;;5.28;70.31
75923;BME280;64602;47.542;19.090;2022-11-30T20:20:33;101023.59;;;5.17;70.85
75923;BME280;64602;47.542;19.090;2022-11-30T20:25:36;101014.25;;;5.06;70.96
75923;BME280;64602;47.542;19.090;2022-11-30T20:30:38;101003.25;;;4.94;71.44
75923;BME280;64602;47.542;19.090;2022-11-30T20:35:40;101013.59;;;4.97;71.71
75923;BME280;64602;47.542;19.090;2022-11-30T20:40:45;101011.06;;;4.89;71.97
75923;BME280;64602;47.542;19.090;2022-11-30T20:45:47;101014.59;;;4.89;72.06
75923;BME280;64602;47.542;19.090;2022-11-30T20:50:49;101013.13;;;4.87;71.73
75923;BME280;64602;47.542;19.090;2022-11-30T20:56:12;101014.13;;;4.79;72.35
75923;BME280;64602;47.542;19.090;2022-11-30T21:01:20;101010.16;;;4.75;72.26
75923;BME280;64602;47.542;19.090;2022-11-30T21:06:22;101007.47;;;4.75;72.47
75923;BME280;64602;47.542;19.090;2022-11-30T21:11:25;101004.38;;;4.71;72.43
75923;BME280;64602;47.542;19.090;2022-11-30T21:16:28;101001.44;;;4.66;72.06
75923;BME280;64602;47.542;19.090;2022-11-30T21:21:33;101017.19;;;4.69;72.30
75923;BME280;64602;47.542;19.090;2022-11-30T21:26:40;101003.63;;;4.56;73.01
75923;BME280;64602;47.542;19.090;2022-11-30T21:31:42;101015.63;;;4.54;73.15
75923;BME280;64602;47.542;19.090;2022-11-30T21:36:44;101033.22;;;4.56;73.41
75923;BME280;64602;47.542;19.090;2022-11-30T21:41:46;101026.34;;;4.47;73.18
75923;BME280;64602;47.542;19.090;2022-11-30T21:46:49;101033.19;;;4.49;73.41
75923;BME280;64602;47.542;19.090;2022-11-30T21:51:52;101050.63;;;4.60;72.86
75923;BME280;64602;47.542;19.090;2022-11-30T21:56:54;101052.88;;;4.57;73.50
75923;BME280;64602;47.542;19.090;2022-11-30T22:01:56;101060.06;;;4.49;74.12
75923;BME280;64602;47.542;19.090;2022-11-30T22:06:58;101066.69;;;4.54;73.23
75923;BME280;64602;47.542;19.090;2022-11-30T22:12:00;101063.63;;;4.57;72.52
75923;BME280;64602;47.542;19.090;2022-11-30T22:17:02;101067.81;;;4.66;72.69
75923;BME280;64602;47.542;19.090;2022-11-30T22:22:04;101067.56;;;4.61;73.97
75923;BME280;64602;47.542;19.090;2022-11-30T22:27:07;101073.59;;;4.63;73.90
75923;BME280;64602;47.542;19.090;2022-11-30T22:32:09;101080.25;;;4.67;73.92
75923;BME280;64602;47.542;19.090;2022-11-30T22:37:11;101060.37;;;4.68;73.25
75923;BME280;64602;47.542;19.090;2022-11-30T22:42:13;101067.56;;;4.61;73.78
75923;BME280;64602;47.542;19.090;2022-11-30T22:47:15;101041.03;;;4.51;74.66
75923;BME280;64602;47.542;19.090;2022-11-30T22:52:18;101051.41;;;4.54;74.58
75923;BME280;64602;47.542;19.090;2022-11-30T22:57:40;101046.63;;;4.49;74.95
75923;BME280;64602;47.542;19.090;2022-11-30T23:02:42;101031.53;;;4.27;76.10
75923;BME280;64602;47.542;19.090;2022-11-30T23:07:44;101035.50;;;4.31;76.24
75923;BME280;64602;47.542;19.090;2022-11-30T23:12:46;101044.47;;;4.38;76.11
75923;BME280;64602;47.542;19.090;2022-11-30T23:18:03;101031.75;;;4.25;76.44
75923;BME280;64602;47.542;19.090;2022-11-30T23:23:05;101030.97;;;4.32;76.28
75923;BME280;64602;47.542;19.090;2022-11-30T23:28:07;101031.59;;;4.34;76.84
75923;BME280;64602;47.542;19.090;2022-11-30T23:33:09;101035.69;;;4.29;77.30
75923;BME280;64602;47.542;19.090;2022-11-30T23:38:11;101029.91;;;4.26;77.47
75923;BME280;64602;47.542;19.090;2022-11-30T23:43:14;101027.22;;;4.26;77.44
75923;BME280;64602;47.542;19.090;2022-11-30T23:48:16;101012.84;;;4.12;75.61
75923;BME280;64602;47.542;19.090;2022-11-30T23:53:18;101033.75;;;4.17;74.75
75923;BME280;64602;47.542;19.090;2022-11-30T23:58:21;101022.69;;;4.05;74.39
